Time;durP1;ratioP1;P1;durP2;ratioP2;P2;SDS_P1;SDS_P2;PMS_P1;PMS_P2;Temp;Humidity;BMP_temperature;BMP_pressure;BME280_temperature;BME280_humidity;BME280_pressure;Samples;Min_cycle;Max_cycle;Signal;HPM_P1;HPM_P2
2022/12/07 00:01:07;;;;;;;2.37;2.07;;;;;;;;;;5087300;28;20545;-70
2022/12/07 00:03:34;;;;;;;6.90;2.20;;;;;;;;;;5092463;28;20457;-70
2022/12/07 00:06:01;;;;;;;4.43;2.80;;;;;;;;;;5091566;28;20467;-70
2022/12/07 00:08:30;;;;;;;5.77;3.50;;;;;;;;;;5089813;28;20447;-70
2022/12/07 00:10:57;;;;;;;2.77;2.57;;;;;;;;;;5084555;28;20453;-70
2022/12/07 00:13:24;;;;;;;4.20;2.67;;;;;;;;;;5092085;28;20456;-70
2022/12/07 00:15:51;;;;;;;3.57;3.07;;;;;;;;;;5091345;28;20489;-69
2022/12/07 00:18:18;;;;;;;5.40;3.40;;;;;;;;;;5092395;28;20459;-70
2022/12/07 00:20:45;;;;;;;3.97;2.33;;;;;;;;;;5091072;28;20444;-69
2022/12/07 00:23:12;;;;;;;4.80;2.83;;;;;;;;;;5092049;28;20806;-69
2022/12/07 00:25:41;;;;;;;2.63;2.43;;;;;;;;;;5085053;28;20470;-70
2022/12/07 00:28:09;;;;;;;4.40;2.97;;;;;;;;;;5088322;28;20816;-69
2022/12/07 00:30:36;;;;;;;4.90;2.87;;;;;;;;;;5077647;28;20758;-69
2022/12/07 00:33:03;;;;;;;3.53;3.23;;;;;;;;;;5078545;28;20960;-69
2022/12/07 00:35:30;;;;;;;3.60;2.70;;;;;;;;;;5072567;28;20476;-70
2022/12/07 00:37:57;;;;;;;2.40;2.17;;;;;;;;;;5084210;28;20447;-69
2022/12/07 00:40:24;;;;;;;3.43;2.87;;;;;;;;;;5090968;28;20451;-70
2022/12/07 00:42:53;;;;;;;6.83;3.90;;;;;;;;;;5090948;28;20448;-70
2022/12/07 00:45:20;;;;;;;4.60;2.80;;;;;;;;;;5089971;28;20443;-69
2022/12/07 00:47:47;;;;;;;3.23;2.87;;;;;;;;;;5085640;28;20468;-69
2022/12/07 00:50:14;;;;;;;3.60;2.50;;;;;;;;;;5082381;28;20532;-69
2022/12/07 00:52:41;;;;;;;3.63;2.97;;;;;;;;;;5088603;28;20447;-69
2022/12/07 00:55:09;;;;;;;5.60;2.80;;;;;;;;;;5083048;28;21110;-70
2022/12/07 00:57:36;;;;;;;5.07;2.90;;;;;;;;;;5091103;28;20453;-69
2022/12/07 01:00:05;;;;;;;5.77;4.20;;;;;;;;;;5085776;28;20974;-70
2022/12/07 01:02:32;;;;;;;6.57;3.30;;;;;;;;;;5090766;28;20461;-70
2022/12/07 01:04:59;;;;;;;5.67;3.60;;;;;;;;;;5089689;28;20943;-70
2022/12/07 01:07:26;;;;;;;3.40;2.77;;;;;;;;;;5090512;28;20458;-70
2022/12/07 01:09:53;;;;;;;5.40;3.57;;;;;;;;;;5082834;28;20972;-70
2022/12/07 01:12:20;;;;;;;3.27;2.50;;;;;;;;;;5087167;28;20445;-70
2022/12/07 01:14:47;;;;;;;5.57;2.87;;;;;;;;;;5085157;28;20455;-70
2022/12/07 01:17:16;;;;;;;5.80;3.07;;;;;;;;;;5088916;28;20609;-69
2022/12/07 01:19:43;;;;;;;5.23;3.23;;;;;;;;;;5077312;28;20464;-70
2022/12/07 01:22:10;;;;;;;6.17;3.80;;;;;;;;;;5082786;28;20490;-70
2022/12/07 01:24:37;;;;;;;5.70;3.90;;;;;;;;;;5090319;28;20452;-69
2022/12/07 01:27:04;;;;;;;6.77;3.70;;;;;;;;;;5089561;28;20814;-69
2022/12/07 01:29:31;;;;;;;5.40;4.20;;;;;;;;;;5086428;28;20450;-70
2022/12/07 01:31:58;;;;;;;6.03;3.90;;;;;;;;;;5089735;28;20456;-69
2022/12/07 01:34:27;;;;;;;4.80;4.20;;;;;;;;;;5090547;28;20443;-69
2022/12/07 01:36:54;;;;;;;4.17;3.20;;;;;;;;;;5075800;28;20488;-69
2022/12/07 01:39:21;;;;;;;7.53;3.70;;;;;;;;;;5090483;28;20456;-70
2022/12/07 01:41:48;;;;;;;5.90;3.30;;;;;;;;;;5089509;28;20458;-69
2022/12/07 01:44:17;;;;;;;6.20;3.23;;;;;;;;;;5090586;28;20445;-69
2022/12/07 01:46:46;;;;;;;5.13;2.80;;;;;;;;;;5087321;28;20456;-67
2022/12/07 01:49:16;;;;;;;5.93;3.00;;;;;;;;;;5090528;28;20514;-70
2022/12/07 01:51:46;;;;;;;6.83;3.77;;;;;;;;;;5086724;28;20455;-69
2022/12/07 01:54:14;;;;;;;5.30;3.57;;;;;;;;;;5083313;28;20486;-69
2022/12/07 01:56:43;;;;;;;5.63;3.83;;;;;;;;;;5082089;28;20487;-69
2022/12/07 01:59:10;;;;;;;6.00;2.93;;;;;;;;;;5083646;28;20443;-69
2022/12/07 02:01:37;;;;;;;7.27;5.13;;;;;;;;;;5084948;28;20445;-70
2022/12/07 02:04:05;;;;;;;5.53;3.70;;;;;;;;;;5088805;28;20454;-69
2022/12/07 02:06:32;;;;;;;5.27;3.33;;;;;;;;;;5086108;28;20983;-69
2022/12/07 02:09:01;;;;;;;8.97;3.20;;;;;;;;;;5080934;28;20469;-69
2022/12/07 02:11:28;;;;;;;6.40;3.90;;;;;;;;;;5076025;28;20467;-69
2022/12/07 02:13:55;;;;;;;5.43;4.23;;;;;;;;;;5086063;28;20446;-70
2022/12/07 02:16:28;;;;;;;5.73;3.90;;;;;;;;;;5086717;28;20501;-69
2022/12/07 02:19:01;;;;;;;6.10;3.87;;;;;;;;;;5089762;28;20814;-69
2022/12/07 02:21:32;;;;;;;4.83;3.87;;;;;;;;;;5084943;28;20497;-69
2022/12/07 02:24:17;;;;;;;7.83;3.90;;;;;;;;;;5092739;28;20447;-70
2022/12/07 02:27:11;;;;;;;5.27;3.97;;;;;;;;;;5093061;28;20458;-69
2022/12/07 02:29:42;;;;;;;4.40;3.60;;;;;;;;;;5063126;28;20454;-69
2022/12/07 02:32:11;;;;;;;6.13;3.80;;;;;;;;;;5087127;28;20452;-69
2022/12/07 02:34:43;;;;;;;5.80;3.17;;;;;;;;;;5078561;28;20451;-69
2022/12/07 02:37:16;;;;;;;4.50;3.20;;;;;;;;;;5079455;28;20475;-69
2022/12/07 02:39:45;;;;;;;5.87;3.13;;;;;;;;;;5080490;28;20465;-69
2022/12/07 02:42:15;;;;;;;4.23;2.60;;;;;;;;;;5092984;28;20458;-69
2022/12/07 02:44:45;;;;;;;5.83;3.43;;;;;;;;;;5093684;28;20439;-69
2022/12/07 02:47:13;;;;;;;5.97;3.60;;;;;;;;;;5085091;28;20804;-69
2022/12/07 02:49:41;;;;;;;5.10;3.47;;;;;;;;;;5086513;28;20479;-70
2022/12/07 02:52:08;;;;;;;7.10;2.93;;;;;;;;;;5081900;28;20451;-69
2022/12/07 02:54:35;;;;;;;8.77;3.80;;;;;;;;;;5091433;28;20936;-69
2022/12/07 02:57:08;;;;;;;5.50;3.53;;;;;;;;;;5092240;28;20490;-69
2022/12/07 02:59:42;;;;;;;5.00;2.80;;;;;;;;;;5079366;28;20809;-69
2022/12/07 03:02:16;;;;;;;5.27;3.97;;;;;;;;;;5092320;28;20451;-69
2022/12/07 03:04:47;;;;;;;5.97;3.23;;;;;;;;;;5080811;28;20475;-69
2022/12/07 03:07:19;;;;;;;5.37;4.30;;;;;;;;;;5091913;28;20446;-68
2022/12/07 03:09:50;;;;;;;6.93;3.87;;;;;;;;;;5083874;28;20454;-69
2022/12/07 03:12:20;;;;;;;6.80;2.37;;;;;;;;;;5092090;28;20450;-69
2022/12/07 03:14:50;;;;;;;4.60;3.40;;;;;;;;;;5082815;28;20806;-69
2022/12/07 03:17:19;;;;;;;5.50;4.10;;;;;;;;;;5089774;28;20494;-69
2022/12/07 03:19:47;;;;;;;6.43;3.37;;;;;;;;;;5077406;28;20458;-69
2022/12/07 03:22:15;;;;;;;5.70;3.57;;;;;;;;;;5090915;28;20795;-69
2022/12/07 03:24:44;;;;;;;3.80;3.50;;;;;;;;;;5091322;28;20796;-69
2022/12/07 03:27:15;;;;;;;3.63;3.00;;;;;;;;;;5083456;28;20453;-68
2022/12/07 03:29:44;;;;;;;4.20;3.50;;;;;;;;;;5086419;28;20530;-69
2022/12/07 03:32:16;;;;;;;5.23;3.00;;;;;;;;;;5078983;28;20450;-69
2022/12/07 03:34:48;;;;;;;7.37;4.20;;;;;;;;;;5092578;28;20442;-69
2022/12/07 03:37:17;;;;;;;6.63;3.57;;;;;;;;;;5084487;28;20536;-69
2022/12/07 03:39:47;;;;;;;2.80;2.40;;;;;;;;;;5091834;28;20581;-68
2022/12/07 03:42:15;;;;;;;5.70;3.00;;;;;;;;;;5091999;28;20845;-69
2022/12/07 03:44:42;;;;;;;5.00;2.40;;;;;;;;;;5092379;28;20449;-69
2022/12/07 03:47:13;;;;;;;4.63;3.30;;;;;;;;;;5082119;28;20450;-70
2022/12/07 03:49:44;;;;;;;6.77;3.63;;;;;;;;;;5091764;28;20465;-69
2022/12/07 03:52:17;;;;;;;5.93;3.57;;;;;;;;;;5092543;28;20454;-69
2022/12/07 03:54:49;;;;;;;5.50;3.30;;;;;;;;;;5091934;28;20470;-68
2022/12/07 03:57:16;;;;;;;4.77;2.63;;;;;;;;;;5081363;28;20950;-69
2022/12/07 03:59:43;;;;;;;7.90;4.10;;;;;;;;;;5091487;28;20443;-69
2022/12/07 04:02:12;;;;;;;5.00;3.20;;;;;;;;;;5092366;28;20452;-69
2022/12/07 04:04:40;;;;;;;4.17;2.87;;;;;;;;;;5092483;28;20801;-69
2022/12/07 04:07:07;;;;;;;4.13;3.37;;;;;;;;;;5081244;28;20453;-69
2022/12/07 04:09:35;;;;;;;10.17;3.20;;;;;;;;;;5091191;28;20460;-69
2022/12/07 04:12:02;;;;;;;6.70;3.63;;;;;;;;;;5088582;28;20944;-69
2022/12/07 04:14:29;;;;;;;6.23;4.20;;;;;;;;;;5078417;28;20449;-69
2022/12/07 04:16:58;;;;;;;5.87;3.10;;;;;;;;;;5086216;28;20948;-68
2022/12/07 04:19:26;;;;;;;7.33;4.07;;;;;;;;;;5085932;28;20455;-69
2022/12/07 04:21:53;;;;;;;5.10;3.60;;;;;;;;;;5083193;28;20448;-69
2022/12/07 04:24:20;;;;;;;5.57;3.57;;;;;;;;;;5085116;28;20456;-69
2022/12/07 04:26:48;;;;;;;6.83;3.83;;;;;;;;;;5087332;28;20467;-70
2022/12/07 04:29:16;;;;;;;7.73;3.97;;;;;;;;;;5078603;28;20457;-68
2022/12/07 04:31:43;;;;;;;4.37;3.07;;;;;;;;;;5080777;28;20936;-69
2022/12/07 04:34:11;;;;;;;5.63;3.23;;;;;;;;;;5073430;28;20452;-68
2022/12/07 04:36:38;;;;;;;6.13;3.37;;;;;;;;;;5087430;28;20979;-69
2022/12/07 04:39:06;;;;;;;4.17;2.60;;;;;;;;;;5085293;28;20950;-69
2022/12/07 04:41:33;;;;;;;5.37;4.10;;;5.70;1.00;;;;;;5075047;28;20449;-69
2022/12/07 04:44:02;;;;;;;5.33;3.27;;;4.10;1.00;;;;;;5090337;28;20453;-69
2022/12/07 04:46:31;;;;;;;3.67;2.40;;;4.20;99.90;;;;;;5089917;28;20538;-71
2022/12/07 04:48:58;;;;;;;6.30;3.53;;;4.10;99.90;;;;;;5081754;28;20480;-70
2022/12/07 04:51:27;;;;;;;5.03;3.07;;;4.30;99.90;;;;;;5075299;28;20458;-70
2022/12/07 04:53:55;;;;;;;4.13;2.50;;;4.40;1.00;;;;;;5087939;28;20448;-70
2022/12/07 04:56:22;;;;;;;6.53;4.10;;;4.40;1.00;;;;;;5084988;28;20457;-70
2022/12/07 04:58:49;;;;;;;3.73;2.47;;;4.60;99.90;;;;;;5082679;28;20451;-68
2022/12/07 05:01:19;;;;;;;3.20;2.33;;;4.60;99.90;;;;;;5076795;28;20440;-68
2022/12/07 05:03:46;;;;;;;3.60;1.73;;;4.40;94.30;;;;;;5078547;28;20918;-67
2022/12/07 05:06:13;;;;;;;4.03;1.87;;;4.50;1.00;;;;;;5077093;28;20940;-67
2022/12/07 05:08:40;;;;;;;4.10;2.40;;;4.40;99.90;;;;;;5085306;28;20460;-70
2022/12/07 05:11:08;;;;;;;4.27;2.50;;;4.40;1.00;;;;;;5080770;28;20448;-71
2022/12/07 05:13:37;;;;;;;4.23;2.63;;;4.60;99.90;;;;;;5082673;28;20458;-70
2022/12/07 05:16:04;;;;;;;4.00;2.30;;;4.60;99.90;;;;;;5090038;28;20448;-71
2022/12/07 05:18:32;;;;;;;4.60;2.70;;;4.50;99.90;;;;;;5076939;28;20500;-74
2022/12/07 05:20:59;;;;;;;5.07;2.70;;;4.50;99.90;;;;;;5073823;28;20791;-70
2022/12/07 05:23:26;;;;;;;3.33;1.93;;;4.50;1.00;;;;;;5070625;28;20451;-70
2022/12/07 05:25:52;;;;;;;2.33;1.77;;;4.40;1.00;;;;;;5077611;28;20443;-69
2022/12/07 05:28:19;;;;;;;4.37;2.97;;;4.30;1.00;;;;;;5090596;28;20451;-69
2022/12/07 05:30:46;;;;;;;5.07;2.60;;;4.50;99.90;;;;;;5090024;28;20450;-68
2022/12/07 05:33:13;;;;;;;6.53;3.37;;;4.60;99.90;;;;;;5090050;28;20524;-69
2022/12/07 05:35:41;;;;;;;3.10;2.17;;;4.60;96.70;;;;;;5090535;28;20453;-71
2022/12/07 05:38:08;;;;;;;3.40;2.33;;;4.60;99.90;;;;;;5089858;28;20478;-70
2022/12/07 05:40:35;;;;;;;3.00;2.40;;;4.70;95.60;;;;;;5090122;28;20463;-70
2022/12/07 05:43:02;;;;;;;3.70;2.63;;;4.60;1.00;;;;;;5089117;28;20839;-70
2022/12/07 05:45:28;;;;;;;3.10;1.90;;;4.50;99.90;;;;;;5090531;28;21201;-70
2022/12/07 05:47:55;;;;;;;3.17;2.87;;;4.40;99.90;;;;;;5090825;28;20467;-70
2022/12/07 05:50:22;;;;;;;3.83;2.43;;;4.50;99.90;;;;;;5094671;28;20442;-69
2022/12/07 05:52:50;;;;;;;5.70;3.37;;;4.60;99.90;;;;;;5093274;28;20460;-67
2022/12/07 05:55:17;;;;;;;3.60;1.80;;;4.60;99.90;;;;;;5094293;28;20444;-69
2022/12/07 05:59:22;;;;;;;5.33;2.80;;;4.60;99.90;;;;;;5094396;28;20488;-69
2022/12/07 06:00:30;;;;;;;5.07;3.00;;;4.70;99.90;;;;;;5093971;28;20445;-69
2022/12/07 06:02:57;;;;;;;4.67;2.50;;;4.80;99.90;;;;;;5093454;28;20563;-69
2022/12/07 06:05:24;;;;;;;2.50;2.30;;;4.70;99.90;;;;;;5094604;28;20196;-69
2022/12/07 06:07:52;;;;;;;3.93;2.97;;;4.80;99.90;;;;;;5093786;28;20459;-72
2022/12/07 06:10:19;;;;;;;6.70;2.57;;;4.90;99.90;;;;;;5087742;28;20454;-69
2022/12/07 06:12:46;;;;;;;5.10;2.57;;;4.90;99.90;;;;;;5080080;28;20445;-68
2022/12/07 06:15:13;;;;;;;4.47;2.50;;;4.80;99.90;;;;;;5094084;28;20553;-69
2022/12/07 06:17:40;;;;;;;3.20;2.40;;;4.70;99.90;;;;;;5080810;28;21037;-69
2022/12/07 06:20:08;;;;;;;4.80;3.10;;;4.60;99.90;;;;;;5093903;28;20992;-69
2022/12/07 06:22:35;;;;;;;2.53;1.90;;;4.60;1.00;;;;;;5093955;28;20471;-69
2022/12/07 06:25:03;;;;;;;5.70;2.97;;;4.60;1.00;;;;;;5093630;28;20452;-69
2022/12/07 06:27:31;;;;;;;3.10;1.77;;;4.30;1.00;;;;;;5094575;28;20457;-71
2022/12/07 06:29:58;;;;;;;3.30;2.33;;;4.40;1.00;;;;;;5094027;28;20445;-69
2022/12/07 06:32:24;;;;;;;4.30;1.90;;;4.40;1.00;;;;;;5093920;28;20444;-69
2022/12/07 06:34:51;;;;;;;2.20;1.50;;;4.50;1.00;;;;;;5093813;28;20459;-70
2022/12/07 06:37:18;;;;;;;2.93;2.50;;;4.20;7.30;;;;;;5093978;28;20489;-69
2022/12/07 06:39:45;;;;;;;2.73;2.20;;;4.10;1.00;;;;;;5093533;28;20472;-67
2022/12/07 06:42:13;;;;;;;3.00;1.97;;;4.20;1.00;;;;;;5094035;28;20456;-69
2022/12/07 06:44:40;;;;;;;3.97;1.90;;;4.10;1.00;;;;;;5093850;28;20931;-70
2022/12/07 06:47:07;;;;;;;3.97;3.30;;;4.20;1.00;;;;;;5093390;28;20453;-69
2022/12/07 06:49:34;;;;;;;3.73;2.60;;;4.10;99.90;;;;;;5094272;28;20548;-69
2022/12/07 06:52:01;;;;;;;2.77;1.80;;;4.10;1.00;;;;;;5092930;28;20460;-69
2022/12/07 06:54:30;;;;;;;5.00;2.37;;;4.10;1.00;;;;;;5093534;28;20464;-69
2022/12/07 06:56:56;;;;;;;5.77;3.00;;;4.10;99.90;;;;;;5093481;28;20467;-69
2022/12/07 06:59:24;;;;;;;3.20;2.00;;;4.00;1.00;;;;;;5093381;28;20468;-69
2022/12/07 07:01:51;;;;;;;2.63;2.43;;;3.90;99.90;;;;;;5093048;28;20856;-69
2022/12/07 07:04:18;;;;;;;7.17;2.83;;;3.80;1.00;;;;;;5093667;28;20437;-69
2022/12/07 07:06:45;;;;;;;4.30;3.00;;;4.20;99.90;;;;;;5093394;28;20454;-68
2022/12/07 07:09:12;;;;;;;3.57;2.87;;;4.10;13.20;;;;;;5082199;28;20962;-69
2022/12/07 07:11:39;;;;;;;3.43;2.00;;;3.90;14.60;;;;;;5090604;28;20947;-69
2022/12/07 07:14:06;;;;;;;3.13;1.83;;;4.30;1.00;;;;;;5093166;28;20449;-70
2022/12/07 07:16:34;;;;;;;6.87;2.80;;;4.30;99.90;;;;;;5093809;28;20442;-69
2022/12/07 07:19:01;;;;;;;3.73;2.13;;;4.20;55.20;;;;;;5093121;28;20487;-69
2022/12/07 07:21:27;;;;;;;4.63;2.47;;;4.20;1.00;;;;;;5093575;28;20450;-69
2022/12/07 07:23:54;;;;;;;7.47;3.53;;;4.30;99.90;;;;;;5092392;28;20445;-69
2022/12/07 07:26:21;;;;;;;6.20;2.87;;;4.30;99.90;;;;;;5093396;28;20515;-69
2022/12/07 07:28:48;;;;;;;2.53;2.00;;;4.40;99.90;;;;;;5092905;28;20455;-69
2022/12/07 07:31:14;;;;;;;4.10;2.77;;;4.30;58.10;;;;;;5093202;28;20452;-69
2022/12/07 07:33:43;;;;;;;5.03;3.27;;;4.30;99.90;;;;;;5092667;28;20881;-68
2022/12/07 07:36:10;;;;;;;4.43;2.10;;;4.30;99.90;;;;;;5093541;28;20472;-69
2022/12/07 07:38:37;;;;;;;3.83;2.43;;;4.30;1.00;;;;;;5093130;28;20477;-69
2022/12/07 07:41:04;;;;;;;5.40;3.80;;;4.20;1.00;;;;;;5092057;28;20455;-69
2022/12/07 07:43:30;;;;;;;5.20;2.70;;;4.40;99.90;;;;;;5092856;28;20447;-69
2022/12/07 07:45:57;;;;;;;2.87;2.10;;;4.20;1.00;;;;;;5092413;28;20456;-69
2022/12/07 07:48:25;;;;;;;4.00;2.90;;;4.10;28.00;;;;;;5092581;28;20478;-69
2022/12/07 07:50:53;;;;;;;5.67;3.13;;;4.20;1.00;;;;;;5092553;28;20553;-69
2022/12/07 07:53:20;;;;;;;8.67;3.03;;;4.20;26.90;;;;;;5092490;28;20456;-69
2022/12/07 07:55:53;;;;;;;3.93;2.57;;;4.00;85.10;;;;;;5092251;28;20452;-69
2022/12/07 07:58:19;;;;;;;4.70;2.17;;;4.10;99.90;;;;;;5079886;28;20476;-69
2022/12/07 08:00:47;;;;;;;3.50;2.60;;;4.00;1.00;;;;;;5092325;28;20452;-69
2022/12/07 08:03:13;;;;;;;4.63;2.80;;;3.90;1.00;;;;;;5092246;28;20448;-69
2022/12/07 08:05:40;;;;;;;3.40;1.97;;;4.00;1.00;;;;;;5092475;28;20455;-69
2022/12/07 08:08:08;;;;;;;5.03;3.00;;;4.10;99.90;;;;;;5090007;28;20802;-70
2022/12/07 08:10:36;;;;;;;5.10;2.70;;;4.20;87.00;;;;;;5080292;28;20455;-69
2022/12/07 08:13:13;;;;;;;9.90;3.67;;;4.20;1.00;;;;;;5091714;28;20450;-71
2022/12/07 08:15:41;;;;;;;5.10;3.23;;;4.20;1.00;;;;;;5092854;28;20515;-69
2022/12/07 08:18:08;;;;;;;5.93;2.30;;;4.10;1.00;;;;;;5092226;28;20843;-69
2022/12/07 08:20:37;;;;;;;4.47;2.50;;;4.20;1.00;;;;;;5092333;28;20457;-69
2022/12/07 08:23:04;;;;;;;6.63;2.23;;;4.20;1.00;;;;;;5091547;28;20561;-69
2022/12/07 08:25:33;;;;;;;2.50;2.07;;;4.20;1.00;;;;;;5091870;28;20454;-70
2022/12/07 08:28:00;;;;;;;3.47;2.33;;;4.40;99.90;;;;;;5091604;28;20462;-70
2022/12/07 08:30:27;;;;;;;5.73;2.77;;;4.50;93.60;;;;;;5091990;28;21002;-71
2022/12/07 08:32:54;;;;;;;4.70;2.83;;;4.50;99.90;;;;;;5091212;28;20446;-70
2022/12/07 08:35:21;;;;;;;6.10;2.50;;;4.60;1.00;;;;;;5092164;28;20445;-70
2022/12/07 08:37:48;;;;;;;6.13;2.70;;;4.70;1.00;;;;;;5091347;28;20526;-70
2022/12/07 08:40:15;;;;;;;3.00;2.30;;;4.80;1.00;;;;;;5091647;28;20954;-70
2022/12/07 08:42:45;;;;;;;4.10;3.17;;;4.70;99.90;;;;;;5091976;28;20452;-70
2022/12/07 08:45:14;;;;;;;4.40;2.63;;;4.80;99.90;;;;;;5092120;28;20446;-69
2022/12/07 08:47:45;;;;;;;3.83;2.77;;;4.80;99.90;;;;;;5091952;28;20453;-70
2022/12/07 08:50:13;;;;;;;5.17;2.67;;;5.10;82.50;;;;;;5092327;28;20441;-70
2022/12/07 08:52:41;;;;;;;4.67;2.70;;;5.10;1.00;;;;;;5091810;28;20806;-70
2022/12/07 08:55:10;;;;;;;2.67;2.00;;;5.10;1.00;;;;;;5090954;28;20954;-70
2022/12/07 08:57:37;;;;;;;3.53;2.20;;;5.10;1.00;;;;;;5091722;28;20453;-70
2022/12/07 09:00:07;;;;;;;3.07;1.77;;;5.10;7.00;;;;;;5091364;28;20812;-70
2022/12/07 09:02:34;;;;;;;6.33;2.67;;;5.40;99.90;;;;;;5090970;28;21268;-70
2022/12/07 09:05:01;;;;;;;3.60;2.73;;;5.20;1.00;;;;;;5091266;28;20455;-70
2022/12/07 09:07:28;;;;;;;4.30;2.00;;;5.30;1.00;;;;;;5091569;28;20450;-70
2022/12/07 09:09:55;;;;;;;4.83;2.17;;;5.30;1.00;;;;;;5076420;28;20455;-70
2022/12/07 09:12:22;;;;;;;2.83;2.47;;;5.30;1.00;;;;;;5090892;28;20455;-70
2022/12/07 09:14:49;;;;;;;3.60;2.10;;;5.30;1.00;;;;;;5090569;28;20492;-70
2022/12/07 09:17:17;;;;;;;3.97;2.40;;;5.40;1.00;;;;;;5091301;28;20462;-69
2022/12/07 09:19:44;;;;;;;5.40;2.17;;;5.90;1.00;;;;;;5091294;28;20484;-70
2022/12/07 09:22:11;;;;;;;2.10;1.50;;;5.60;1.00;;;;;;5090322;28;20442;-70
2022/12/07 09:24:38;;;;;;;4.60;2.20;;;5.40;1.00;;;;;;5091167;28;20452;-70
2022/12/07 09:27:05;;;;;;;3.43;1.50;;;5.30;1.00;;;;;;5090485;28;20529;-70
2022/12/07 09:29:32;;;;;;;2.60;1.97;;;5.30;1.00;;;;;;5091039;28;20450;-70
2022/12/07 09:31:58;;;;;;;4.13;1.73;;;5.40;1.00;;;;;;5090313;28;20473;-70
2022/12/07 09:34:27;;;;;;;3.23;1.77;;;5.40;1.00;;;;;;5091198;28;20447;-70
2022/12/07 09:36:54;;;;;;;2.03;1.87;;;5.40;1.00;;;;;;5090700;28;20438;-70
2022/12/07 09:39:21;;;;;;;2.90;1.90;;;5.40;1.00;;;;;;5091126;28;20501;-70
2022/12/07 09:41:47;;;;;;;3.33;1.60;;;5.40;1.00;;;;;;5089912;28;20964;-70
2022/12/07 09:44:24;;;;;;;3.23;1.70;;;5.60;1.00;;;;;;5091400;28;20454;-70
2022/12/07 09:46:52;;;;;;;1.90;1.70;;;5.80;1.00;;;;;;5090782;28;20447;-70
2022/12/07 09:49:22;;;;;;;4.40;2.43;;;5.80;99.90;;;;;;5090957;28;20491;-70
2022/12/07 09:52:02;;;;;;;2.20;1.53;;;5.90;99.90;;;;;;5090346;28;20447;-70
2022/12/07 09:54:30;;;;;;;2.70;1.50;;;6.00;99.90;;;;;;5091142;28;20441;-70
2022/12/07 09:56:57;;;;;;;4.50;1.97;;;6.00;99.90;;;;;;5090226;28;20957;-70
2022/12/07 09:59:24;;;;;;;3.80;1.67;;;6.00;99.90;;;;;;5090778;28;20985;-70
2022/12/07 10:01:51;;;;;;;2.20;1.53;;;6.00;99.90;;;;;;5090153;28;20448;-70
2022/12/07 10:04:21;;;;;;;4.07;1.70;;;6.10;99.90;;;;;;5091198;28;20452;-70
2022/12/07 10:06:50;;;;;;;1.50;1.23;;;6.10;99.90;;;;;;5090405;28;20828;-70
2022/12/07 10:09:20;;;;;;;2.20;1.70;;;6.20;99.90;;;;;;5079115;28;20802;-70
2022/12/07 10:12:05;;;;;;;2.07;1.53;;;6.20;99.90;;;;;;5088931;28;20531;-70
2022/12/07 10:14:35;;;;;;;5.80;2.30;;;6.10;99.90;;;;;;5078689;28;20443;-70
2022/12/07 10:17:02;;;;;;;1.90;1.60;;;6.10;99.90;;;;;;5090425;28;20447;-70
2022/12/07 10:19:31;;;;;;;11.93;2.00;;;6.10;99.90;;;;;;5091301;28;20484;-71
2022/12/07 10:22:02;;;;;;;2.77;1.40;;;6.10;99.90;;;;;;5090357;28;20961;-71
2022/12/07 10:24:30;;;;;;;4.13;2.00;;;6.10;99.90;;;;;;5100283;28;20437;-71
2022/12/07 10:26:57;;;;;;;2.33;1.80;;;6.20;99.90;;;;;;5099506;28;20936;-71
2022/12/07 10:29:28;;;;;;;3.90;1.73;;;6.20;99.90;;;;;;5100983;28;20459;-70
2022/12/07 10:31:58;;;;;;;3.20;1.77;;;6.20;99.90;;;;;;5100270;28;20437;-70
2022/12/07 10:34:28;;;;;;;2.17;1.20;;;6.30;99.90;;;;;;5101953;28;20562;-70
2022/12/07 10:37:14;;;;;;;4.70;1.87;;;6.00;99.90;;;;;;5105091;28;20443;-72
2022/12/07 10:39:44;;;;;;;2.00;1.50;;;6.20;99.90;;;;;;5104053;28;20473;-70
2022/12/07 10:42:18;;;;;;;1.70;1.13;;;6.30;99.90;;;;;;5103101;28;20448;-70
2022/12/07 10:44:45;;;;;;;3.63;2.03;;;6.20;99.90;;;;;;5101212;28;20452;-70
2022/12/07 10:47:34;;;;;;;3.00;2.00;;;6.30;99.90;;;;;;5104595;28;20463;-70
2022/12/07 10:50:24;;;;;;;2.70;1.93;;;6.40;99.90;;;;;;5103757;28;20583;-70
2022/12/07 10:53:05;;;;;;;3.20;2.33;;;6.20;99.90;;;;;;5103502;28;20448;-72
2022/12/07 10:55:46;;;;;;;3.07;1.63;;;6.20;99.90;;;;;;5104405;28;20491;-70
2022/12/07 10:58:28;;;;;;;2.10;1.40;;;6.30;99.90;;;;;;5089041;28;20460;-70
2022/12/07 11:01:05;;;;;;;2.10;1.30;;;6.40;99.90;;;;;;5098716;28;20450;-70
2022/12/07 11:03:43;;;;;;;3.30;1.73;;;6.40;99.90;;;;;;5098674;28;20535;-70
2022/12/07 11:06:24;;;;;;;2.00;1.40;;;6.50;99.90;;;;;;5097144;28;20456;-70
2022/12/07 11:09:03;;;;;;;2.27;1.43;;;6.40;99.90;;;;;;5087750;28;20465;-70
2022/12/07 11:11:35;;;;;;;2.63;1.83;;;6.50;99.90;;;;;;5091532;28;20442;-70
2022/12/07 11:14:14;;;;;;;3.73;2.20;;;6.60;99.90;;;;;;5093540;28;20446;-70
2022/12/07 11:16:56;;;;;;;2.07;1.30;;;6.60;99.90;;;;;;5094250;28;20456;-71
2022/12/07 11:19:36;;;;;;;1.73;1.10;;;6.40;99.90;;;;;;5081510;28;20480;-70
2022/12/07 11:22:09;;;;;;;1.60;1.03;;;6.30;99.90;;;;;;5092886;28;20993;-71
2022/12/07 11:24:47;;;;;;;2.00;1.03;;;6.30;99.90;;;;;;5094189;28;20438;-70
2022/12/07 11:27:24;;;;;;;1.63;0.83;;;6.50;99.90;;;;;;5093498;28;20780;-69
2022/12/07 11:30:10;;;;;;;1.70;1.13;;;6.30;99.90;;;;;;5093751;28;20457;-70
2022/12/07 11:32:59;;;;;;;1.73;1.30;;;6.20;1.00;;;;;;5090720;28;20556;-70
2022/12/07 11:35:35;;;;;;;1.83;1.10;;;6.30;1.00;;;;;;5093557;28;20790;-70
2022/12/07 11:38:11;;;;;;;1.57;1.00;;;6.40;1.00;;;;;;5092888;28;20452;-71
2022/12/07 11:40:39;;;;;;;2.73;1.37;;;6.20;1.00;;;;;;5092965;28;20966;-70
2022/12/07 11:43:16;;;;;;;2.37;1.20;;;6.20;1.00;;;;;;5092096;28;20456;-70
2022/12/07 11:45:45;;;;;;;1.40;1.10;;;6.20;1.00;;;;;;5092491;28;20444;-70
2022/12/07 11:48:16;;;;;;;1.97;1.77;;;6.30;1.00;;;;;;5092880;28;20488;-69
2022/12/07 11:50:48;;;;;;;3.50;1.20;;;6.20;1.00;;;;;;5093499;28;20850;-70
2022/12/07 11:53:21;;;;;;;1.37;1.00;;;6.20;1.00;;;;;;5092728;28;20451;-70
2022/12/07 11:55:52;;;;;;;1.77;1.07;;;6.20;1.00;;;;;;5092210;28;20456;-70
2022/12/07 11:58:39;;;;;;;2.50;1.27;;;6.10;1.00;;;;;;5079658;28;20448;-70
2022/12/07 12:01:19;;;;;;;2.10;1.50;;;6.10;1.00;;;;;;5091842;28;20781;-70
2022/12/07 12:03:47;;;;;;;1.30;1.10;;;6.10;1.00;;;;;;5091952;28;20522;-69
2022/12/07 12:06:15;;;;;;;2.80;1.30;;;6.20;1.00;;;;;;5092865;28;20456;-70
2022/12/07 12:08:47;;;;;;;5.17;1.73;;;6.30;1.00;;;;;;5085888;28;20460;-70
2022/12/07 12:11:26;;;;;;;1.23;1.10;;;6.30;1.00;;;;;;5086383;28;20823;-70
2022/12/07 12:14:25;;;;;;;2.13;1.60;;;6.20;1.00;;;;;;5092065;28;20439;-70
2022/12/07 12:17:12;;;;;;;1.73;1.17;;;6.20;1.00;;;;;;5086701;28;20804;-70
2022/12/07 12:19:42;;;;;;;1.23;0.90;;;6.20;17.90;;;;;;5092563;28;20474;-70
2022/12/07 12:22:16;;;;;;;1.97;1.30;;;6.30;1.00;;;;;;5091557;28;20452;-70
2022/12/07 12:24:46;;;;;;;1.70;1.30;;;6.20;90.10;;;;;;5092172;28;20448;-70
2022/12/07 12:27:22;;;;;;;3.17;1.60;;;6.20;99.90;;;;;;5092303;28;20457;-70
2022/12/07 12:29:56;;;;;;;2.87;1.93;;;6.20;99.90;;;;;;5091658;28;20449;-69
2022/12/07 12:32:25;;;;;;;4.00;2.27;;;6.40;99.90;;;;;;5079644;28;20436;-70
2022/12/07 12:35:01;;;;;;;4.47;3.10;;;6.40;99.90;;;;;;5091529;28;20835;-70
2022/12/07 12:37:45;;;;;;;3.20;2.10;;;6.20;99.90;;;;;;5092272;28;20470;-70
2022/12/07 12:40:44;;;;;;;3.00;2.30;;;6.10;99.90;;;;;;5091914;28;20479;-69
2022/12/07 12:43:49;;;;;;;3.27;2.10;;;6.10;99.90;;;;;;5091788;28;20440;-70
2022/12/07 12:46:57;;;;;;;3.23;2.20;;;6.10;99.90;;;;;;5092090;28;20437;-70
2022/12/07 12:49:59;;;;;;;5.50;2.40;;;6.20;99.90;;;;;;5091978;28;20568;-70
2022/12/07 12:52:51;;;;;;;2.33;1.80;;;6.30;99.90;;;;;;5091495;28;20444;-70
2022/12/07 12:56:05;;;;;;;2.20;2.00;;;6.30;99.90;;;;;;5080788;28;20955;-70
2022/12/07 12:58:40;;;;;;;4.60;2.50;;;6.40;95.60;;;;;;5081112;28;20868;-70
2022/12/07 13:01:43;;;;;;;2.10;1.80;;;6.40;23.20;;;;;;5090656;28;20708;-70
2022/12/07 13:04:39;;;;;;;13.70;1.90;;;6.20;1.00;;;;;;5090936;28;20454;-70
2022/12/07 13:07:12;;;;;;;3.03;1.60;;;6.20;15.30;;;;;;5091119;28;20445;-70
2022/12/07 13:09:45;;;;;;;2.23;1.83;;;6.20;61.60;;;;;;5077787;28;20485;-70
2022/12/07 13:12:14;;;;;;;5.00;2.00;;;6.40;1.00;;;;;;5091214;28;20871;-69
2022/12/07 13:14:59;;;;;;;2.30;2.10;;;6.40;1.00;;;;;;5091751;28;20448;-70
2022/12/07 13:18:01;;;;;;;2.27;1.70;;;6.20;1.00;;;;;;5091431;28;20458;-70
2022/12/07 13:20:58;;;;;;;2.67;2.10;;;6.30;1.00;;;;;;5090992;28;21001;-70
2022/12/07 13:23:30;;;;;;;5.70;2.03;;;6.40;1.00;;;;;;5056090;28;20511;-70
2022/12/07 13:26:06;;;;;;;1.80;1.43;;;6.60;1.00;;;;;;5090695;28;20458;-70
2022/12/07 13:28:40;;;;;;;2.80;1.80;;;6.10;1.00;;;;;;5091287;28;20452;-71
2022/12/07 13:31:34;;;;;;;1.93;1.70;;;6.20;1.00;;;;;;5090098;28;20446;-70
2022/12/07 13:34:02;;;;;;;2.00;1.33;;;6.20;1.00;;;;;;5090814;28;20436;-70
2022/12/07 13:36:35;;;;;;;2.07;1.00;;;6.30;1.00;;;;;;5090804;28;20448;-70
2022/12/07 13:39:17;;;;;;;2.93;2.00;;;6.40;1.00;;;;;;5090551;28;20559;-70
2022/12/07 13:41:50;;;;;;;1.97;1.60;;;6.40;1.00;;;;;;5090586;28;20539;-69
2022/12/07 13:44:18;;;;;;;4.10;2.23;;;6.20;1.00;;;;;;5091312;28;20441;-70
2022/12/07 13:46:53;;;;;;;6.53;2.67;;;6.30;1.00;;;;;;5091032;28;20470;-68
2022/12/07 13:49:22;;;;;;;2.20;1.47;;;6.40;1.00;;;;;;5090661;28;20569;-70
2022/12/07 13:51:51;;;;;;;1.53;1.40;;;6.40;1.00;;;;;;5090177;28;20453;-70
2022/12/07 13:54:18;;;;;;;1.30;1.13;;;6.50;1.00;;;;;;5091075;28;20464;-70